Gainesville, FL (32601)

8:20 AM EDT on September 26, 2016 (GMT -0400)
The Duckpond | | Change Station

Elev 124 ft 29.66 °N, 82.32 °W | Updated 4 seconds ago

Clear
Clear
77.5 °F
Feels Like 79 °F
N
0.0
Wind Variable Wind from North
Gusts 2.0 mph

Today
High -- | Low -- °F
--% Chance of Precip.
Yesterday
High -- | Low -- °F
Precip. -- in
Pressure 30.00 in
Visibility 8.0 miles
Clouds Clear
Heat Index 79 °F
Dew Point 73 °F
Humidity 86%
Rainfall 0.00 in
Snow Depth Not available.
7:20 AM 7:20 PM
Waning Crescent, 19% visible
METAR KGNV 261153Z 32003KT 8SM CLR 22/21 A3001 RMK AO2 SLP159 T02220211 10228 20211 53007
Pressure 30.00 in
Visibility 8.0 miles
Clouds Clear
Heat Index 79 °F
Dew Point 73 °F
Humidity 86%
Rainfall 0.00 in
Snow Depth Not available.
7:20 AM 7:20 PM
Waning Crescent, 19% visible
METAR KGNV 261153Z 32003KT 8SM CLR 22/21 A3001 RMK AO2 SLP159 T02220211 10228 20211 53007

10-Day Weather Forecast

Almanac

Astronomy

Sep. 26, 2016 Rise Set
Actual Time
Civil Twilight
Nautical Twilight
Astronomical Twilight
Moon
Length of Visible Light
Length of Day
Tomorrow will be .
, % of the Moon is Illuminated

Today's Extremes

State Highs State Lows

Community

WunderPhotos

Upload Photos

1,941,863 photos uploaded!

WunderBlog® & News

Nearby

Air Quality

  Air Quality AQ Index Pollutant
Not available.

Snow Depth

Station Depth Elevation

Earthquake Activity

City Distance Mag. Time & Date
Minimum magnitude displayed is 2.5.

Coastal Water Temperatures

Place Temperature

Stations

Nearby Weather Stations

Station Location Temp. Windchill Dew Point Humidity Wind Precip. Elev Updated Type
                   

Watches & Warnings

There are currently no watches in effect.